sensor_id;sensor_type;location;lat;lon;timestamp;P1;durP1;ratioP1;P2;durP2;ratioP2
59786;SDS011;45672;51.612;5.536;2023-09-12T00:02:05;28.40;;;19.75;;
59786;SDS011;45672;51.612;5.536;2023-09-12T00:04:30;24.83;;;19.33;;
59786;SDS011;45672;51.612;5.536;2023-09-12T00:06:55;26.20;;;19.02;;
59786;SDS011;45672;51.612;5.536;2023-09-12T00:09:21;27.77;;;19.70;;
59786;SDS011;45672;51.612;5.536;2023-09-12T00:11:47;24.90;;;19.42;;
59786;SDS011;45672;51.612;5.536;2023-09-12T00:14:15;26.55;;;19.92;;
59786;SDS011;45672;51.612;5.536;2023-09-12T00:16:41;30.23;;;19.63;;
59786;SDS011;45672;51.612;5.536;2023-09-12T00:19:07;27.35;;;20.88;;
59786;SDS011;45672;51.612;5.536;2023-09-12T00:21:32;27.40;;;20.30;;
59786;SDS011;45672;51.612;5.536;2023-09-12T00:23:57;28.95;;;19.63;;
59786;SDS011;45672;51.612;5.536;2023-09-12T00:26:23;30.13;;;19.65;;
59786;SDS011;45672;51.612;5.536;2023-09-12T00:28:48;30.45;;;20.30;;
59786;SDS011;45672;51.612;5.536;2023-09-12T00:31:13;30.85;;;21.20;;
59786;SDS011;45672;51.612;5.536;2023-09-12T00:33:38;24.83;;;20.17;;
59786;SDS011;45672;51.612;5.536;2023-09-12T00:36:04;26.55;;;19.85;;
59786;SDS011;45672;51.612;5.536;2023-09-12T00:38:29;26.33;;;20.10;;
59786;SDS011;45672;51.612;5.536;2023-09-12T00:40:55;26.50;;;19.83;;
59786;SDS011;45672;51.612;5.536;2023-09-12T00:43:20;25.33;;;19.85;;
59786;SDS011;45672;51.612;5.536;2023-09-12T00:45:45;31.88;;;20.85;;
59786;SDS011;45672;51.612;5.536;2023-09-12T00:48:10;31.10;;;21.20;;
59786;SDS011;45672;51.612;5.536;2023-09-12T00:50:37;27.23;;;20.40;;
59786;SDS011;45672;51.612;5.536;2023-09-12T00:53:04;28.63;;;20.88;;
59786;SDS011;45672;51.612;5.536;2023-09-12T00:55:31;28.30;;;20.98;;
59786;SDS011;45672;51.612;5.536;2023-09-12T00:57:58;28.85;;;20.85;;
59786;SDS011;45672;51.612;5.536;2023-09-12T01:00:24;27.38;;;22.17;;
59786;SDS011;45672;51.612;5.536;2023-09-12T01:02:50;28.50;;;21.17;;
59786;SDS011;45672;51.612;5.536;2023-09-12T01:05:17;34.60;;;21.13;;
59786;SDS011;45672;51.612;5.536;2023-09-12T01:07:43;31.33;;;20.23;;
59786;SDS011;45672;51.612;5.536;2023-09-12T01:10:09;30.50;;;21.13;;
59786;SDS011;45672;51.612;5.536;2023-09-12T01:12:34;28.70;;;21.70;;
59786;SDS011;45672;51.612;5.536;2023-09-12T01:15:01;28.63;;;21.15;;
59786;SDS011;45672;51.612;5.536;2023-09-12T01:17:26;27.15;;;20.95;;
59786;SDS011;45672;51.612;5.536;2023-09-12T01:19:52;28.77;;;21.73;;
59786;SDS011;45672;51.612;5.536;2023-09-12T01:22:21;33.35;;;21.88;;
59786;SDS011;45672;51.612;5.536;2023-09-12T01:28:08;33.88;;;21.90;;
59786;SDS011;45672;51.612;5.536;2023-09-12T01:30:34;33.05;;;23.83;;
59786;SDS011;45672;51.612;5.536;2023-09-12T01:33:01;32.17;;;22.38;;
59786;SDS011;45672;51.612;5.536;2023-09-12T01:35:26;31.20;;;22.17;;
59786;SDS011;45672;51.612;5.536;2023-09-12T01:37:52;30.85;;;22.65;;
59786;SDS011;45672;51.612;5.536;2023-09-12T01:40:19;30.83;;;23.08;;
59786;SDS011;45672;51.612;5.536;2023-09-12T01:42:53;35.67;;;22.77;;
59786;SDS011;45672;51.612;5.536;2023-09-12T01:45:21;26.70;;;21.50;;
59786;SDS011;45672;51.612;5.536;2023-09-12T01:47:46;31.67;;;23.33;;
59786;SDS011;45672;51.612;5.536;2023-09-12T01:50:12;29.65;;;21.67;;
59786;SDS011;45672;51.612;5.536;2023-09-12T01:52:39;31.90;;;22.50;;
59786;SDS011;45672;51.612;5.536;2023-09-12T01:55:06;31.63;;;22.42;;
59786;SDS011;45672;51.612;5.536;2023-09-12T01:57:34;31.42;;;22.35;;
59786;SDS011;45672;51.612;5.536;2023-09-12T02:00:00;29.65;;;20.92;;
59786;SDS011;45672;51.612;5.536;2023-09-12T02:02:25;32.90;;;22.48;;
59786;SDS011;45672;51.612;5.536;2023-09-12T02:04:52;34.95;;;22.98;;
59786;SDS011;45672;51.612;5.536;2023-09-12T02:07:29;28.90;;;21.65;;
59786;SDS011;45672;51.612;5.536;2023-09-12T02:09:57;31.23;;;20.83;;
59786;SDS011;45672;51.612;5.536;2023-09-12T02:12:23;32.42;;;22.08;;
59786;SDS011;45672;51.612;5.536;2023-09-12T02:14:48;30.33;;;21.13;;
59786;SDS011;45672;51.612;5.536;2023-09-12T02:17:13;31.30;;;21.80;;
59786;SDS011;45672;51.612;5.536;2023-09-12T02:19:38;31.33;;;21.60;;
59786;SDS011;45672;51.612;5.536;2023-09-12T02:22:04;30.00;;;22.25;;
59786;SDS011;45672;51.612;5.536;2023-09-12T02:24:29;33.33;;;23.35;;
59786;SDS011;45672;51.612;5.536;2023-09-12T02:26:55;31.13;;;22.80;;
59786;SDS011;45672;51.612;5.536;2023-09-12T02:29:20;32.38;;;22.55;;
59786;SDS011;45672;51.612;5.536;2023-09-12T02:31:45;30.85;;;22.23;;
59786;SDS011;45672;51.612;5.536;2023-09-12T02:34:11;30.73;;;22.92;;
59786;SDS011;45672;51.612;5.536;2023-09-12T02:36:36;27.67;;;22.15;;
59786;SDS011;45672;51.612;5.536;2023-09-12T02:39:01;30.95;;;23.70;;
59786;SDS011;45672;51.612;5.536;2023-09-12T02:41:28;30.67;;;23.83;;
59786;SDS011;45672;51.612;5.536;2023-09-12T02:43:53;36.38;;;22.90;;
59786;SDS011;45672;51.612;5.536;2023-09-12T02:46:18;33.95;;;23.58;;
59786;SDS011;45672;51.612;5.536;2023-09-12T02:48:44;33.70;;;23.08;;
59786;SDS011;45672;51.612;5.536;2023-09-12T02:51:09;35.25;;;22.60;;
59786;SDS011;45672;51.612;5.536;2023-09-12T02:53:34;30.17;;;22.73;;
59786;SDS011;45672;51.612;5.536;2023-09-12T02:56:00;30.90;;;22.77;;
59786;SDS011;45672;51.612;5.536;2023-09-12T02:58:25;34.65;;;21.63;;
59786;SDS011;45672;51.612;5.536;2023-09-12T03:00:50;29.90;;;22.38;;
59786;SDS011;45672;51.612;5.536;2023-09-12T03:03:19;29.33;;;22.52;;
59786;SDS011;45672;51.612;5.536;2023-09-12T03:05:45;27.83;;;21.80;;
59786;SDS011;45672;51.612;5.536;2023-09-12T03:08:10;27.60;;;22.52;;
59786;SDS011;45672;51.612;5.536;2023-09-12T03:10:35;28.55;;;22.35;;
59786;SDS011;45672;51.612;5.536;2023-09-12T03:13:01;33.70;;;22.08;;
59786;SDS011;45672;51.612;5.536;2023-09-12T03:15:26;26.00;;;21.17;;
59786;SDS011;45672;51.612;5.536;2023-09-12T03:17:51;30.45;;;22.50;;
59786;SDS011;45672;51.612;5.536;2023-09-12T03:20:16;32.75;;;21.48;;
59786;SDS011;45672;51.612;5.536;2023-09-12T03:22:42;30.65;;;21.85;;
59786;SDS011;45672;51.612;5.536;2023-09-12T03:25:07;30.80;;;22.02;;
59786;SDS011;45672;51.612;5.536;2023-09-12T03:27:33;30.00;;;21.77;;
59786;SDS011;45672;51.612;5.536;2023-09-12T03:29:58;28.60;;;21.02;;
59786;SDS011;45672;51.612;5.536;2023-09-12T03:32:23;31.95;;;22.25;;
59786;SDS011;45672;51.612;5.536;2023-09-12T03:34:49;30.27;;;21.63;;
59786;SDS011;45672;51.612;5.536;2023-09-12T03:37:14;31.63;;;22.75;;
59786;SDS011;45672;51.612;5.536;2023-09-12T03:39:40;31.60;;;20.55;;
59786;SDS011;45672;51.612;5.536;2023-09-12T03:42:05;26.75;;;20.25;;
59786;SDS011;45672;51.612;5.536;2023-09-12T03:44:31;27.33;;;21.35;;
59786;SDS011;45672;51.612;5.536;2023-09-12T03:46:56;27.48;;;21.50;;
59786;SDS011;45672;51.612;5.536;2023-09-12T03:49:23;29.60;;;21.25;;
59786;SDS011;45672;51.612;5.536;2023-09-12T03:51:48;33.63;;;21.35;;
59786;SDS011;45672;51.612;5.536;2023-09-12T03:54:13;29.70;;;21.98;;
59786;SDS011;45672;51.612;5.536;2023-09-12T03:56:38;30.20;;;20.65;;
59786;SDS011;45672;51.612;5.536;2023-09-12T03:59:04;34.72;;;20.35;;
59786;SDS011;45672;51.612;5.536;2023-09-12T04:01:29;28.42;;;19.75;;
59786;SDS011;45672;51.612;5.536;2023-09-12T04:03:54;28.73;;;21.05;;
59786;SDS011;45672;51.612;5.536;2023-09-12T04:06:20;33.42;;;21.13;;
59786;SDS011;45672;51.612;5.536;2023-09-12T04:08:45;28.85;;;20.65;;
59786;SDS011;45672;51.612;5.536;2023-09-12T04:11:10;32.30;;;21.25;;
59786;SDS011;45672;51.612;5.536;2023-09-12T04:13:36;32.38;;;21.25;;
59786;SDS011;45672;51.612;5.536;2023-09-12T04:16:01;31.05;;;20.63;;
59786;SDS011;45672;51.612;5.536;2023-09-12T04:18:27;30.70;;;21.33;;
59786;SDS011;45672;51.612;5.536;2023-09-12T04:20:52;30.38;;;21.75;;
59786;SDS011;45672;51.612;5.536;2023-09-12T04:23:20;30.05;;;22.52;;
59786;SDS011;45672;51.612;5.536;2023-09-12T04:25:46;29.48;;;22.65;;
59786;SDS011;45672;51.612;5.536;2023-09-12T04:28:11;36.15;;;24.08;;
59786;SDS011;45672;51.612;5.536;2023-09-12T04:30:36;36.70;;;25.52;;
59786;SDS011;45672;51.612;5.536;2023-09-12T04:33:02;40.00;;;24.63;;
59786;SDS011;45672;51.612;5.536;2023-09-12T04:35:27;35.38;;;24.45;;
59786;SDS011;45672;51.612;5.536;2023-09-12T04:37:53;37.92;;;23.60;;
59786;SDS011;45672;51.612;5.536;2023-09-12T04:40:18;34.83;;;23.85;;
59786;SDS011;45672;51.612;5.536;2023-09-12T04:42:43;34.85;;;24.55;;
59786;SDS011;45672;51.612;5.536;2023-09-12T04:45:09;38.50;;;24.98;;
59786;SDS011;45672;51.612;5.536;2023-09-12T04:47:34;37.83;;;23.55;;
59786;SDS011;45672;51.612;5.536;2023-09-12T04:49:59;35.20;;;22.95;;
59786;SDS011;45672;51.612;5.536;2023-09-12T04:52:26;30.13;;;20.77;;
59786;SDS011;45672;51.612;5.536;2023-09-12T04:54:52;28.48;;;20.65;;
59786;SDS011;45672;51.612;5.536;2023-09-12T04:57:17;30.50;;;20.63;;
59786;SDS011;45672;51.612;5.536;2023-09-12T04:59:42;29.58;;;20.70;;
59786;SDS011;45672;51.612;5.536;2023-09-12T05:02:07;33.58;;;21.30;;
59786;SDS011;45672;51.612;5.536;2023-09-12T05:04:33;28.00;;;19.92;;
59786;SDS011;45672;51.612;5.536;2023-09-12T05:06:58;25.92;;;19.38;;
59786;SDS011;45672;51.612;5.536;2023-09-12T05:09:23;26.88;;;19.05;;
59786;SDS011;45672;51.612;5.536;2023-09-12T05:11:49;25.80;;;18.70;;
59786;SDS011;45672;51.612;5.536;2023-09-12T05:14:15;29.80;;;18.90;;
59786;SDS011;45672;51.612;5.536;2023-09-12T05:16:40;30.50;;;19.25;;
59786;SDS011;45672;51.612;5.536;2023-09-12T05:19:05;25.38;;;18.90;;
59786;SDS011;45672;51.612;5.536;2023-09-12T05:21:31;25.65;;;18.83;;
59786;SDS011;45672;51.612;5.536;2023-09-12T05:23:56;23.88;;;18.17;;
59786;SDS011;45672;51.612;5.536;2023-09-12T05:26:22;28.92;;;18.85;;
59786;SDS011;45672;51.612;5.536;2023-09-12T05:28:47;30.23;;;18.52;;
59786;SDS011;45672;51.612;5.536;2023-09-12T05:31:12;31.13;;;19.38;;
59786;SDS011;45672;51.612;5.536;2023-09-12T05:33:38;31.55;;;18.05;;
59786;SDS011;45672;51.612;5.536;2023-09-12T05:36:03;25.85;;;18.70;;
59786;SDS011;45672;51.612;5.536;2023-09-12T05:38:29;28.48;;;18.60;;
59786;SDS011;45672;51.612;5.536;2023-09-12T05:40:54;26.33;;;19.30;;
59786;SDS011;45672;51.612;5.536;2023-09-12T05:43:19;27.17;;;18.45;;
59786;SDS011;45672;51.612;5.536;2023-09-12T05:45:44;23.23;;;18.17;;
59786;SDS011;45672;51.612;5.536;2023-09-12T05:48:10;24.27;;;18.25;;
59786;SDS011;45672;51.612;5.536;2023-09-12T05:50:38;26.35;;;17.83;;
59786;SDS011;45672;51.612;5.536;2023-09-12T05:53:04;24.45;;;18.27;;
59786;SDS011;45672;51.612;5.536;2023-09-12T05:55:29;28.60;;;18.88;;
59786;SDS011;45672;51.612;5.536;2023-09-12T05:57:55;26.88;;;18.60;;
59786;SDS011;45672;51.612;5.536;2023-09-12T06:00:20;29.45;;;18.70;;
59786;SDS011;45672;51.612;5.536;2023-09-12T06:02:46;30.85;;;19.40;;
59786;SDS011;45672;51.612;5.536;2023-09-12T06:05:12;29.45;;;20.73;;
59786;SDS011;45672;51.612;5.536;2023-09-12T06:07:38;31.42;;;19.52;;
59786;SDS011;45672;51.612;5.536;2023-09-12T06:10:05;28.52;;;19.90;;
59786;SDS011;45672;51.612;5.536;2023-09-12T06:12:31;30.17;;;21.15;;
59786;SDS011;45672;51.612;5.536;2023-09-12T06:14:57;28.88;;;20.33;;
59786;SDS011;45672;51.612;5.536;2023-09-12T06:17:23;29.00;;;20.38;;
59786;SDS011;45672;51.612;5.536;2023-09-12T06:19:48;33.30;;;21.63;;
59786;SDS011;45672;51.612;5.536;2023-09-12T06:22:17;31.17;;;20.92;;
59786;SDS011;45672;51.612;5.536;2023-09-12T06:24:43;33.85;;;21.20;;
59786;SDS011;45672;51.612;5.536;2023-09-12T06:27:08;31.20;;;21.38;;
59786;SDS011;45672;51.612;5.536;2023-09-12T06:29:35;31.08;;;20.65;;
59786;SDS011;45672;51.612;5.536;2023-09-12T06:32:00;35.30;;;21.23;;
59786;SDS011;45672;51.612;5.536;2023-09-12T06:34:27;30.15;;;21.17;;
59786;SDS011;45672;51.612;5.536;2023-09-12T06:36:52;36.13;;;22.55;;
59786;SDS011;45672;51.612;5.536;2023-09-12T06:39:18;33.28;;;21.75;;
59786;SDS011;45672;51.612;5.536;2023-09-12T06:41:43;35.13;;;21.27;;
59786;SDS011;45672;51.612;5.536;2023-09-12T06:44:09;28.33;;;20.42;;
59786;SDS011;45672;51.612;5.536;2023-09-12T06:46:34;31.55;;;20.63;;
59786;SDS011;45672;51.612;5.536;2023-09-12T06:49:03;27.55;;;19.05;;
59786;SDS011;45672;51.612;5.536;2023-09-12T06:51:28;26.85;;;19.17;;
59786;SDS011;45672;51.612;5.536;2023-09-12T06:53:53;27.02;;;19.05;;
59786;SDS011;45672;51.612;5.536;2023-09-12T06:56:19;29.10;;;19.02;;
59786;SDS011;45672;51.612;5.536;2023-09-12T06:58:44;33.50;;;20.70;;
59786;SDS011;45672;51.612;5.536;2023-09-12T07:01:09;29.73;;;20.38;;
59786;SDS011;45672;51.612;5.536;2023-09-12T07:03:35;29.60;;;19.80;;
59786;SDS011;45672;51.612;5.536;2023-09-12T07:06:01;34.55;;;20.75;;
59786;SDS011;45672;51.612;5.536;2023-09-12T07:08:31;31.70;;;20.90;;
59786;SDS011;45672;51.612;5.536;2023-09-12T07:10:56;32.38;;;21.75;;
59786;SDS011;45672;51.612;5.536;2023-09-12T07:13:22;27.13;;;19.77;;
59786;SDS011;45672;51.612;5.536;2023-09-12T07:15:49;37.72;;;20.95;;
59786;SDS011;45672;51.612;5.536;2023-09-12T07:18:15;35.00;;;21.13;;
59786;SDS011;45672;51.612;5.536;2023-09-12T07:20:40;33.60;;;21.25;;
59786;SDS011;45672;51.612;5.536;2023-09-12T07:23:06;32.80;;;21.10;;
59786;SDS011;45672;51.612;5.536;2023-09-12T07:25:36;34.30;;;21.52;;
59786;SDS011;45672;51.612;5.536;2023-09-12T07:28:03;35.80;;;21.93;;
59786;SDS011;45672;51.612;5.536;2023-09-12T07:30:28;39.85;;;22.20;;
59786;SDS011;45672;51.612;5.536;2023-09-12T07:32:55;33.65;;;21.67;;
59786;SDS011;45672;51.612;5.536;2023-09-12T07:35:20;35.20;;;22.88;;
59786;SDS011;45672;51.612;5.536;2023-09-12T07:37:48;40.17;;;22.35;;
59786;SDS011;45672;51.612;5.536;2023-09-12T07:40:14;32.95;;;22.33;;
59786;SDS011;45672;51.612;5.536;2023-09-12T07:42:39;41.88;;;23.15;;
59786;SDS011;45672;51.612;5.536;2023-09-12T07:45:05;32.78;;;21.50;;
59786;SDS011;45672;51.612;5.536;2023-09-12T07:47:31;31.02;;;21.27;;
59786;SDS011;45672;51.612;5.536;2023-09-12T07:49:58;33.28;;;21.42;;
59786;SDS011;45672;51.612;5.536;2023-09-12T07:52:25;37.22;;;24.45;;
59786;SDS011;45672;51.612;5.536;2023-09-12T07:54:50;34.53;;;22.17;;
59786;SDS011;45672;51.612;5.536;2023-09-12T07:57:18;35.47;;;22.08;;
59786;SDS011;45672;51.612;5.536;2023-09-12T07:59:43;29.73;;;20.45;;
59786;SDS011;45672;51.612;5.536;2023-09-12T08:02:09;30.45;;;18.63;;
59786;SDS011;45672;51.612;5.536;2023-09-12T08:04:37;28.30;;;17.63;;
59786;SDS011;45672;51.612;5.536;2023-09-12T08:07:03;25.00;;;16.95;;
59786;SDS011;45672;51.612;5.536;2023-09-12T08:09:47;23.75;;;16.10;;
59786;SDS011;45672;51.612;5.536;2023-09-12T08:12:17;23.63;;;16.08;;
59786;SDS011;45672;51.612;5.536;2023-09-12T08:14:43;23.08;;;15.27;;
59786;SDS011;45672;51.612;5.536;2023-09-12T08:17:10;22.77;;;15.80;;
59786;SDS011;45672;51.612;5.536;2023-09-12T08:19:35;24.98;;;16.63;;
59786;SDS011;45672;51.612;5.536;2023-09-12T08:22:01;21.27;;;15.80;;
59786;SDS011;45672;51.612;5.536;2023-09-12T08:24:26;18.38;;;13.98;;
59786;SDS011;45672;51.612;5.536;2023-09-12T08:26:51;17.55;;;9.65;;
59786;SDS011;45672;51.612;5.536;2023-09-12T08:29:17;11.48;;;8.20;;
59786;SDS011;45672;51.612;5.536;2023-09-12T08:31:42;12.05;;;9.23;;
59786;SDS011;45672;51.612;5.536;2023-09-12T08:34:07;13.68;;;9.68;;
59786;SDS011;45672;51.612;5.536;2023-09-12T08:36:33;12.05;;;10.50;;
59786;SDS011;45672;51.612;5.536;2023-09-12T08:38:59;13.10;;;10.57;;
59786;SDS011;45672;51.612;5.536;2023-09-12T08:41:25;17.00;;;10.55;;
59786;SDS011;45672;51.612;5.536;2023-09-12T08:43:51;12.15;;;7.82;;
59786;SDS011;45672;51.612;5.536;2023-09-12T08:46:16;10.95;;;9.20;;
59786;SDS011;45672;51.612;5.536;2023-09-12T08:48:43;11.20;;;8.65;;
59786;SDS011;45672;51.612;5.536;2023-09-12T08:51:11;10.23;;;8.00;;
59786;SDS011;45672;51.612;5.536;2023-09-12T08:53:37;11.27;;;7.35;;
59786;SDS011;45672;51.612;5.536;2023-09-12T08:56:03;8.57;;;7.40;;
59786;SDS011;45672;51.612;5.536;2023-09-12T08:58:30;10.88;;;7.57;;
59786;SDS011;45672;51.612;5.536;2023-09-12T09:00:57;8.85;;;7.18;;
59786;SDS011;45672;51.612;5.536;2023-09-12T09:03:23;8.73;;;7.28;;
59786;SDS011;45672;51.612;5.536;2023-09-12T09:05:49;8.95;;;7.72;;
59786;SDS011;45672;51.612;5.536;2023-09-12T09:08:17;8.70;;;7.80;;
59786;SDS011;45672;51.612;5.536;2023-09-12T09:10:56;11.48;;;9.20;;
59786;SDS011;45672;51.612;5.536;2023-09-12T09:13:23;11.02;;;8.65;;
59786;SDS011;45672;51.612;5.536;2023-09-12T09:15:48;12.20;;;8.40;;
59786;SDS011;45672;51.612;5.536;2023-09-12T09:18:14;23.48;;;9.90;;
59786;SDS011;45672;51.612;5.536;2023-09-12T09:20:39;12.02;;;8.38;;
59786;SDS011;45672;51.612;5.536;2023-09-12T09:23:09;10.80;;;7.60;;
59786;SDS011;45672;51.612;5.536;2023-09-12T09:25:36;11.02;;;7.78;;
59786;SDS011;45672;51.612;5.536;2023-09-12T09:28:04;9.02;;;7.47;;
59786;SDS011;45672;51.612;5.536;2023-09-12T09:30:40;21.10;;;9.43;;
59786;SDS011;45672;51.612;5.536;2023-09-12T09:33:09;10.98;;;8.25;;
59786;SDS011;45672;51.612;5.536;2023-09-12T09:35:36;11.15;;;7.60;;
59786;SDS011;45672;51.612;5.536;2023-09-12T09:38:02;8.07;;;7.28;;
59786;SDS011;45672;51.612;5.536;2023-09-12T09:40:30;11.98;;;7.47;;
59786;SDS011;45672;51.612;5.536;2023-09-12T09:42:58;21.38;;;8.18;;
59786;SDS011;45672;51.612;5.536;2023-09-12T09:45:25;8.40;;;6.57;;
59786;SDS011;45672;51.612;5.536;2023-09-12T09:47:50;11.13;;;7.60;;
59786;SDS011;45672;51.612;5.536;2023-09-12T09:50:16;8.30;;;6.97;;
59786;SDS011;45672;51.612;5.536;2023-09-12T09:52:42;10.48;;;7.38;;
59786;SDS011;45672;51.612;5.536;2023-09-12T09:55:12;11.07;;;6.05;;
59786;SDS011;45672;51.612;5.536;2023-09-12T09:57:39;9.63;;;6.72;;
59786;SDS011;45672;51.612;5.536;2023-09-12T10:00:05;8.65;;;6.35;;
59786;SDS011;45672;51.612;5.536;2023-09-12T10:02:34;10.73;;;6.90;;
59786;SDS011;45672;51.612;5.536;2023-09-12T10:05:01;6.88;;;5.40;;
59786;SDS011;45672;51.612;5.536;2023-09-12T10:07:29;6.78;;;5.60;;
59786;SDS011;45672;51.612;5.536;2023-09-12T10:09:58;11.20;;;7.68;;
59786;SDS011;45672;51.612;5.536;2023-09-12T10:12:27;10.20;;;6.38;;
59786;SDS011;45672;51.612;5.536;2023-09-12T10:14:56;7.90;;;6.32;;
59786;SDS011;45672;51.612;5.536;2023-09-12T10:17:26;7.10;;;5.60;;
59786;SDS011;45672;51.612;5.536;2023-09-12T10:19:56;10.93;;;6.72;;
59786;SDS011;45672;51.612;5.536;2023-09-12T10:22:34;10.90;;;7.05;;
59786;SDS011;45672;51.612;5.536;2023-09-12T10:25:04;10.57;;;8.20;;
59786;SDS011;45672;51.612;5.536;2023-09-12T10:27:31;14.05;;;9.65;;
59786;SDS011;45672;51.612;5.536;2023-09-12T10:29:58;10.60;;;8.48;;
59786;SDS011;45672;51.612;5.536;2023-09-12T10:32:25;13.35;;;9.40;;
59786;SDS011;45672;51.612;5.536;2023-09-12T10:34:52;11.55;;;8.90;;
59786;SDS011;45672;51.612;5.536;2023-09-12T10:37:19;10.35;;;8.32;;
59786;SDS011;45672;51.612;5.536;2023-09-12T10:39:47;11.25;;;8.13;;
59786;SDS011;45672;51.612;5.536;2023-09-12T10:42:14;14.63;;;10.07;;
59786;SDS011;45672;51.612;5.536;2023-09-12T10:44:42;14.88;;;9.35;;
59786;SDS011;45672;51.612;5.536;2023-09-12T10:47:10;12.55;;;9.73;;
59786;SDS011;45672;51.612;5.536;2023-09-12T10:49:36;10.13;;;7.30;;
59786;SDS011;45672;51.612;5.536;2023-09-12T10:52:02;14.52;;;8.93;;
59786;SDS011;45672;51.612;5.536;2023-09-12T10:54:46;12.43;;;7.93;;
59786;SDS011;45672;51.612;5.536;2023-09-12T10:57:11;18.02;;;7.13;;
59786;SDS011;45672;51.612;5.536;2023-09-12T11:00:23;9.00;;;6.97;;
59786;SDS011;45672;51.612;5.536;2023-09-12T11:02:27;10.18;;;8.43;;
59786;SDS011;45672;51.612;5.536;2023-09-12T11:04:54;11.88;;;8.40;;
59786;SDS011;45672;51.612;5.536;2023-09-12T11:12:40;11.20;;;7.00;;
59786;SDS011;45672;51.612;5.536;2023-09-12T11:15:10;9.30;;;6.60;;
59786;SDS011;45672;51.612;5.536;2023-09-12T11:17:45;10.15;;;6.90;;
59786;SDS011;45672;51.612;5.536;2023-09-12T11:20:12;8.20;;;6.07;;
59786;SDS011;45672;51.612;5.536;2023-09-12T11:22:41;11.13;;;7.47;;
59786;SDS011;45672;51.612;5.536;2023-09-12T11:25:16;17.92;;;7.28;;
59786;SDS011;45672;51.612;5.536;2023-09-12T11:30:15;10.15;;;5.63;;
59786;SDS011;45672;51.612;5.536;2023-09-12T11:32:48;8.38;;;6.03;;
59786;SDS011;45672;51.612;5.536;2023-09-12T11:35:16;9.93;;;6.50;;
59786;SDS011;45672;51.612;5.536;2023-09-12T11:37:50;9.63;;;6.43;;
59786;SDS011;45672;51.612;5.536;2023-09-12T11:42:58;9.07;;;6.90;;
59786;SDS011;45672;51.612;5.536;2023-09-12T11:45:23;10.40;;;6.97;;
59786;SDS011;45672;51.612;5.536;2023-09-12T11:47:49;9.60;;;6.85;;
59786;SDS011;45672;51.612;5.536;2023-09-12T11:50:31;7.82;;;7.03;;
59786;SDS011;45672;51.612;5.536;2023-09-12T11:53:04;8.57;;;7.05;;
59786;SDS011;45672;51.612;5.536;2023-09-12T11:55:32;7.57;;;6.68;;
59786;SDS011;45672;51.612;5.536;2023-09-12T11:58:00;7.85;;;6.28;;
59786;SDS011;45672;51.612;5.536;2023-09-12T12:00:25;7.93;;;6.10;;
59786;SDS011;45672;51.612;5.536;2023-09-12T12:02:52;11.05;;;7.97;;
59786;SDS011;45672;51.612;5.536;2023-09-12T12:05:18;11.48;;;6.93;;
59786;SDS011;45672;51.612;5.536;2023-09-12T12:07:44;10.57;;;7.18;;
59786;SDS011;45672;51.612;5.536;2023-09-12T12:10:11;15.30;;;6.95;;
59786;SDS011;45672;51.612;5.536;2023-09-12T12:12:37;21.13;;;7.65;;
59786;SDS011;45672;51.612;5.536;2023-09-12T12:15:02;9.70;;;7.18;;
59786;SDS011;45672;51.612;5.536;2023-09-12T12:17:28;7.95;;;6.60;;
59786;SDS011;45672;51.612;5.536;2023-09-12T12:19:53;11.77;;;6.32;;
59786;SDS011;45672;51.612;5.536;2023-09-12T12:22:18;8.63;;;7.03;;
59786;SDS011;45672;51.612;5.536;2023-09-12T12:24:45;9.43;;;7.53;;
59786;SDS011;45672;51.612;5.536;2023-09-12T12:27:11;7.93;;;6.85;;
59786;SDS011;45672;51.612;5.536;2023-09-12T12:29:37;9.85;;;6.57;;
59786;SDS011;45672;51.612;5.536;2023-09-12T12:32:04;7.40;;;6.05;;
59786;SDS011;45672;51.612;5.536;2023-09-12T12:34:30;10.38;;;6.20;;
59786;SDS011;45672;51.612;5.536;2023-09-12T12:36:56;7.97;;;5.88;;
59786;SDS011;45672;51.612;5.536;2023-09-12T12:39:22;7.25;;;6.28;;
59786;SDS011;45672;51.612;5.536;2023-09-12T12:41:48;7.43;;;5.30;;
59786;SDS011;45672;51.612;5.536;2023-09-12T12:44:18;7.50;;;4.90;;
59786;SDS011;45672;51.612;5.536;2023-09-12T12:49:15;4.13;;;3.40;;
59786;SDS011;45672;51.612;5.536;2023-09-12T12:51:41;5.57;;;4.18;;
59786;SDS011;45672;51.612;5.536;2023-09-12T12:54:07;4.65;;;3.80;;
59786;SDS011;45672;51.612;5.536;2023-09-12T12:56:33;5.15;;;4.00;;
59786;SDS011;45672;51.612;5.536;2023-09-12T12:58:59;8.07;;;5.53;;
59786;SDS011;45672;51.612;5.536;2023-09-12T13:01:28;6.70;;;4.80;;
59786;SDS011;45672;51.612;5.536;2023-09-12T13:03:54;4.50;;;4.18;;
59786;SDS011;45672;51.612;5.536;2023-09-12T13:06:21;6.15;;;5.05;;
59786;SDS011;45672;51.612;5.536;2023-09-12T13:08:48;6.90;;;5.75;;
59786;SDS011;45672;51.612;5.536;2023-09-12T13:11:15;4.90;;;3.80;;
59786;SDS011;45672;51.612;5.536;2023-09-12T13:13:41;3.53;;;3.22;;
59786;SDS011;45672;51.612;5.536;2023-09-12T13:16:12;4.78;;;4.15;;
59786;SDS011;45672;51.612;5.536;2023-09-12T13:18:38;9.32;;;5.45;;
59786;SDS011;45672;51.612;5.536;2023-09-12T13:21:04;5.00;;;4.50;;
59786;SDS011;45672;51.612;5.536;2023-09-12T13:23:30;7.15;;;4.80;;
59786;SDS011;45672;51.612;5.536;2023-09-12T13:25:56;6.93;;;5.22;;
59786;SDS011;45672;51.612;5.536;2023-09-12T13:28:22;6.07;;;5.32;;
59786;SDS011;45672;51.612;5.536;2023-09-12T13:30:51;6.07;;;5.13;;
59786;SDS011;45672;51.612;5.536;2023-09-12T13:33:17;8.10;;;5.57;;
59786;SDS011;45672;51.612;5.536;2023-09-12T13:35:42;6.15;;;4.80;;
59786;SDS011;45672;51.612;5.536;2023-09-12T13:38:08;5.97;;;4.80;;
59786;SDS011;45672;51.612;5.536;2023-09-12T13:40:40;7.53;;;5.90;;
59786;SDS011;45672;51.612;5.536;2023-09-12T13:43:07;5.65;;;5.10;;
59786;SDS011;45672;51.612;5.536;2023-09-12T13:45:33;6.90;;;6.30;;
59786;SDS011;45672;51.612;5.536;2023-09-12T13:47:59;9.40;;;6.40;;
59786;SDS011;45672;51.612;5.536;2023-09-12T13:50:25;8.93;;;5.88;;
59786;SDS011;45672;51.612;5.536;2023-09-12T13:52:53;10.60;;;5.70;;
59786;SDS011;45672;51.612;5.536;2023-09-12T13:55:20;9.80;;;6.28;;
59786;SDS011;45672;51.612;5.536;2023-09-12T13:57:46;6.63;;;5.40;;
59786;SDS011;45672;51.612;5.536;2023-09-12T14:00:11;7.70;;;5.75;;
59786;SDS011;45672;51.612;5.536;2023-09-12T14:02:37;6.93;;;5.07;;
59786;SDS011;45672;51.612;5.536;2023-09-12T14:05:02;7.72;;;5.32;;
59786;SDS011;45672;51.612;5.536;2023-09-12T14:07:28;5.85;;;5.22;;
59786;SDS011;45672;51.612;5.536;2023-09-12T14:09:53;5.72;;;5.22;;
59786;SDS011;45672;51.612;5.536;2023-09-12T14:12:21;5.90;;;5.32;;
59786;SDS011;45672;51.612;5.536;2023-09-12T14:14:47;5.80;;;5.20;;
59786;SDS011;45672;51.612;5.536;2023-09-12T14:17:13;6.18;;;5.35;;
59786;SDS011;45672;51.612;5.536;2023-09-12T14:19:39;7.68;;;5.65;;
59786;SDS011;45672;51.612;5.536;2023-09-12T14:22:04;8.60;;;5.03;;
59786;SDS011;45672;51.612;5.536;2023-09-12T14:24:29;6.15;;;5.47;;
59786;SDS011;45672;51.612;5.536;2023-09-12T14:26:55;5.95;;;4.95;;
59786;SDS011;45672;51.612;5.536;2023-09-12T14:29:20;5.57;;;4.68;;
59786;SDS011;45672;51.612;5.536;2023-09-12T14:31:46;5.80;;;5.28;;
59786;SDS011;45672;51.612;5.536;2023-09-12T14:34:15;7.13;;;5.50;;
59786;SDS011;45672;51.612;5.536;2023-09-12T14:36:41;6.45;;;5.45;;
59786;SDS011;45672;51.612;5.536;2023-09-12T14:39:07;7.57;;;5.32;;
59786;SDS011;45672;51.612;5.536;2023-09-12T14:41:32;7.22;;;5.95;;
59786;SDS011;45672;51.612;5.536;2023-09-12T14:43:57;6.10;;;5.60;;